createdAt,value
2023-05-05T00:00:55.936Z,8648.00
2023-05-05T00:01:55.931Z,8729.00
2023-05-05T00:02:56.010Z,8778.00
2023-05-05T00:03:56.074Z,8739.00
2023-05-05T00:04:56.036Z,8655.00
2023-05-05T00:05:56.110Z,8508.00
2023-05-05T00:06:56.159Z,8400.00
2023-05-05T00:07:56.251Z,8307.00
2023-05-05T00:08:56.320Z,8264.00
2023-05-05T00:09:56.307Z,8218.00
2023-05-05T00:10:56.351Z,8133.00
2023-05-05T00:11:56.385Z,8023.00
2023-05-05T00:12:56.425Z,7869.00
2023-05-05T00:13:56.499Z,7682.00
2023-05-05T00:14:56.409Z,7548.00
2023-05-05T00:15:56.478Z,7347.00
2023-05-05T00:16:56.518Z,7136.00
2023-05-05T00:17:56.515Z,7034.00
2023-05-05T00:18:56.536Z,7016.00
2023-05-05T00:19:56.613Z,7030.00
2023-05-05T00:20:56.590Z,7041.00
2023-05-05T00:21:56.584Z,7038.00
2023-05-05T00:22:56.606Z,7040.00
2023-05-05T00:23:56.674Z,7063.00
2023-05-05T00:24:56.678Z,7121.00
2023-05-05T00:25:56.695Z,7147.00
2023-05-05T00:26:56.854Z,7133.00
2023-05-05T00:27:56.802Z,7151.00
2023-05-05T00:28:56.809Z,7253.00
2023-05-05T00:29:56.819Z,7339.00
2023-05-05T00:30:56.901Z,7392.00
2023-05-05T00:31:56.872Z,7403.00
2023-05-05T00:32:56.982Z,7405.00
2023-05-05T00:33:56.949Z,7427.00
2023-05-05T00:34:56.962Z,7459.00
2023-05-05T00:35:57.006Z,7483.00
2023-05-05T00:36:56.990Z,7447.00
2023-05-05T00:37:57.013Z,7453.00
2023-05-05T00:38:57.131Z,7417.00
2023-05-05T00:39:57.006Z,7448.00
2023-05-05T00:40:57.032Z,7482.00
2023-05-05T00:41:57.049Z,7583.00
2023-05-05T00:42:57.028Z,7610.00
2023-05-05T00:43:57.052Z,7649.00
2023-05-05T00:44:57.044Z,7645.00
2023-05-05T00:45:57.202Z,7638.00
2023-05-05T00:46:57.084Z,7653.00
2023-05-05T00:47:57.101Z,7706.00
2023-05-05T00:48:57.108Z,7766.00
2023-05-05T00:49:57.122Z,7816.00
2023-05-05T00:50:57.110Z,7884.00
2023-05-05T00:51:57.098Z,7941.00
2023-05-05T00:52:57.153Z,7964.00
2023-05-05T00:53:57.137Z,8010.00
2023-05-05T00:54:57.123Z,8031.00
2023-05-05T00:55:57.102Z,8016.00
2023-05-05T00:56:57.118Z,8081.00
2023-05-05T00:57:57.091Z,8152.00
2023-05-05T00:58:57.158Z,8166.00
2023-05-05T00:59:57.124Z,8188.00
2023-05-05T01:00:57.137Z,8204.00
2023-05-05T01:01:57.331Z,8137.00
2023-05-05T01:02:57.322Z,8114.00
2023-05-05T01:03:57.228Z,8141.00
2023-05-05T01:04:57.171Z,8167.00
2023-05-05T01:05:57.164Z,8144.00
2023-05-05T01:06:57.235Z,8063.00
2023-05-05T01:07:57.237Z,8039.00
2023-05-05T01:08:57.189Z,8047.00
2023-05-05T01:10:07.623Z,7991.00
2023-05-05T01:10:58.235Z,7919.00
2023-05-05T01:11:57.152Z,7878.00
2023-05-05T01:12:57.259Z,7850.00
2023-05-05T01:13:57.177Z,7791.00
2023-05-05T01:14:57.165Z,7806.00
2023-05-05T01:15:57.191Z,7807.00
2023-05-05T01:16:57.194Z,7785.00
2023-05-05T01:17:57.179Z,7771.00
2023-05-05T01:18:57.213Z,7679.00
2023-05-05T01:19:57.163Z,7621.00
2023-05-05T01:20:57.108Z,7616.00
2023-05-05T01:21:57.099Z,7643.00
2023-05-05T01:22:57.123Z,7639.00
2023-05-05T01:23:57.086Z,7660.00
2023-05-05T01:24:57.113Z,7634.00
2023-05-05T01:25:57.121Z,7611.00
2023-05-05T01:26:57.048Z,7637.00
2023-05-05T01:27:57.125Z,7610.00
2023-05-05T01:28:57.159Z,7588.00
2023-05-05T01:29:57.196Z,7626.00
2023-05-05T01:30:57.264Z,7620.00
2023-05-05T01:31:57.478Z,7649.00
2023-05-05T01:32:57.353Z,7653.00
2023-05-05T01:33:57.396Z,7626.00
2023-05-05T01:34:57.516Z,7613.00
2023-05-05T01:35:57.471Z,7640.00
2023-05-05T01:36:57.516Z,7644.00
2023-05-05T01:37:57.599Z,7667.00
2023-05-05T01:38:57.644Z,7658.00
2023-05-05T01:39:57.707Z,7696.00
2023-05-05T01:40:57.821Z,7715.00
2023-05-05T01:41:57.769Z,7666.00
2023-05-05T01:42:57.823Z,7652.00
2023-05-05T01:43:57.950Z,7695.00
2023-05-05T01:44:57.955Z,7687.00
2023-05-05T01:45:58.025Z,7637.00
2023-05-05T01:46:58.077Z,7623.00
2023-05-05T01:47:58.148Z,7632.00
2023-05-05T01:48:58.126Z,7579.00
2023-05-05T01:49:58.188Z,7603.00
2023-05-05T01:50:58.225Z,7696.00
2023-05-05T01:51:58.270Z,7788.00
2023-05-05T01:52:58.313Z,7773.00
2023-05-05T01:53:58.399Z,7767.00
2023-05-05T01:54:58.555Z,7738.00
2023-05-05T01:55:58.471Z,7707.00
2023-05-05T01:56:58.593Z,7656.00
2023-05-05T01:57:58.634Z,7571.00
2023-05-05T01:58:58.651Z,7440.00
2023-05-05T01:59:58.691Z,7391.00
2023-05-05T02:00:58.859Z,7356.00
2023-05-05T02:01:58.805Z,7381.00
2023-05-05T02:02:58.930Z,7413.00
2023-05-05T02:03:58.975Z,7450.00
2023-05-05T02:04:59.014Z,7459.00
2023-05-05T02:05:59.026Z,7464.00
2023-05-05T02:06:59.129Z,7425.00
2023-05-05T02:07:59.214Z,7392.00
2023-05-05T02:08:59.197Z,7392.00
2023-05-05T02:09:59.282Z,7439.00
2023-05-05T02:11:34.386Z,500.00
2023-05-05T02:12:34.335Z,500.00
2023-05-05T02:13:34.372Z,500.00
2023-05-05T02:14:34.379Z,500.00
2023-05-05T02:15:34.338Z,500.00
2023-05-05T02:16:34.332Z,502.00
2023-05-05T02:17:34.439Z,538.00
2023-05-05T02:18:34.325Z,564.00
2023-05-05T02:19:34.333Z,596.00
2023-05-05T02:20:34.331Z,610.00
2023-05-05T02:21:34.316Z,641.00
2023-05-05T02:22:34.291Z,657.00
2023-05-05T02:23:34.275Z,699.00
2023-05-05T02:24:34.316Z,777.00
2023-05-05T02:25:34.256Z,822.00
2023-05-05T02:26:34.360Z,842.00
2023-05-05T02:27:34.243Z,926.00
2023-05-05T02:28:34.257Z,1022.00
2023-05-05T02:29:34.256Z,1089.00
2023-05-05T02:30:34.239Z,1159.00
2023-05-05T02:31:34.305Z,1219.00
2023-05-05T02:32:34.410Z,1253.00
2023-05-05T02:33:34.360Z,1312.00
2023-05-05T02:34:34.387Z,1386.00
2023-05-05T02:35:34.333Z,1424.00
2023-05-05T02:36:34.330Z,1469.00
2023-05-05T02:37:34.381Z,1486.00
2023-05-05T02:38:34.324Z,1470.00
2023-05-05T02:39:34.369Z,1352.00
2023-05-05T02:40:34.367Z,1294.00
2023-05-05T02:41:34.359Z,1227.00
2023-05-05T02:42:34.585Z,1181.00
2023-05-05T02:43:34.377Z,1115.00
2023-05-05T02:44:34.412Z,1061.00
2023-05-05T02:45:34.420Z,1030.00
2023-05-05T02:46:34.438Z,968.00
2023-05-05T02:47:34.450Z,879.00
2023-05-05T02:48:34.453Z,854.00
2023-05-05T02:49:34.466Z,850.00
2023-05-05T02:50:34.451Z,847.00
2023-05-05T02:51:34.496Z,849.00
2023-05-05T02:52:34.543Z,869.00
2023-05-05T02:53:35.066Z,866.00
2023-05-05T02:54:34.563Z,870.00
2023-05-05T02:55:34.565Z,874.00
2023-05-05T02:56:34.612Z,845.00
2023-05-05T02:57:34.680Z,878.00
2023-05-05T02:58:34.670Z,927.00
2023-05-05T02:59:34.739Z,910.00
2023-05-05T03:00:34.736Z,902.00
2023-05-05T03:01:34.871Z,898.00
2023-05-05T03:02:34.841Z,906.00
2023-05-05T03:03:34.899Z,948.00
2023-05-05T03:04:34.886Z,973.00
2023-05-05T03:05:34.889Z,957.00
2023-05-05T03:06:34.908Z,925.00
2023-05-05T03:07:35.004Z,938.00
2023-05-05T03:08:34.992Z,959.00
2023-05-05T03:09:35.019Z,995.00
2023-05-05T03:10:35.092Z,982.00
2023-05-05T03:11:35.087Z,885.00
2023-05-05T03:12:35.147Z,835.00
2023-05-05T03:13:35.138Z,847.00
2023-05-05T03:14:35.210Z,819.00
2023-05-05T03:15:35.207Z,867.00
2023-05-05T03:16:35.302Z,813.00
2023-05-05T03:17:35.273Z,786.00
2023-05-05T03:18:35.266Z,733.00
2023-05-05T03:19:35.341Z,678.00
2023-05-05T03:20:35.343Z,666.00
2023-05-05T03:21:35.355Z,644.00
2023-05-05T03:22:35.423Z,634.00
2023-05-05T03:23:35.435Z,623.00
2023-05-05T03:24:35.478Z,634.00
2023-05-05T03:25:35.475Z,617.00
2023-05-05T03:26:35.544Z,636.00
2023-05-05T03:27:35.602Z,646.00
2023-05-05T03:28:35.565Z,651.00
2023-05-05T03:29:35.621Z,662.00
2023-05-05T03:30:35.667Z,768.00
2023-05-05T03:31:35.689Z,820.00
2023-05-05T03:32:35.792Z,865.00
2023-05-05T03:33:35.784Z,933.00
2023-05-05T03:34:35.887Z,1059.00
2023-05-05T03:35:35.960Z,1164.00
2023-05-05T03:36:36.045Z,1242.00
2023-05-05T03:37:36.079Z,1264.00
2023-05-05T03:38:36.079Z,1324.00
2023-05-05T03:39:36.194Z,1357.00
2023-05-05T03:40:43.430Z,1366.00
2023-05-05T03:41:37.246Z,1367.00
2023-05-05T03:42:36.225Z,1373.00
2023-05-05T03:43:36.244Z,1384.00
2023-05-05T03:44:36.232Z,1402.00
2023-05-05T03:45:36.211Z,1425.00
2023-05-05T03:46:36.172Z,1478.00
2023-05-05T03:47:36.406Z,1554.00
2023-05-05T03:48:36.191Z,1622.00
2023-05-05T03:49:36.152Z,1622.00
2023-05-05T03:50:36.278Z,1591.00
2023-05-05T03:51:36.228Z,1547.00
2023-05-05T03:52:36.271Z,1538.00
2023-05-05T03:53:36.311Z,1566.00
2023-05-05T03:54:36.335Z,1599.00
2023-05-05T03:55:36.405Z,1620.00
2023-05-05T03:56:36.469Z,1672.00
2023-05-05T03:57:36.577Z,1709.00
2023-05-05T03:58:36.625Z,1743.00
2023-05-05T03:59:36.640Z,1668.00
2023-05-05T04:00:36.684Z,1611.00
2023-05-05T04:01:36.765Z,1587.00
2023-05-05T04:02:36.895Z,1553.00
2023-05-05T04:03:36.962Z,1410.00
2023-05-05T04:04:36.979Z,1315.00
2023-05-05T04:05:36.994Z,1287.00
2023-05-05T04:06:37.038Z,1277.00
2023-05-05T04:07:37.099Z,1323.00
2023-05-05T04:08:37.627Z,1356.00
2023-05-05T04:09:37.175Z,1380.00
2023-05-05T04:10:37.277Z,1413.00
2023-05-05T04:11:37.287Z,1435.00
2023-05-05T04:12:37.515Z,1446.00
2023-05-05T04:13:37.412Z,1424.00
2023-05-05T04:14:37.468Z,1384.00
2023-05-05T04:15:37.556Z,1390.00
2023-05-05T04:16:37.562Z,1385.00
2023-05-05T04:17:37.718Z,1366.00
2023-05-05T04:18:37.725Z,1372.00
2023-05-05T04:19:37.831Z,1371.00
2023-05-05T04:20:37.809Z,1386.00
2023-05-05T04:21:37.874Z,1414.00
2023-05-05T04:22:37.960Z,1449.00
2023-05-05T04:23:38.027Z,1490.00
2023-05-05T04:24:38.064Z,1509.00
2023-05-05T04:25:38.162Z,1522.00
2023-05-05T04:26:38.220Z,1531.00
2023-05-05T04:27:38.269Z,1529.00
2023-05-05T04:28:38.269Z,1602.00
2023-05-05T04:29:38.370Z,1687.00
2023-05-05T04:30:38.379Z,1761.00
2023-05-05T04:31:38.561Z,1705.00
2023-05-05T04:32:38.545Z,1600.00
2023-05-05T04:33:38.563Z,1552.00
2023-05-05T04:34:38.621Z,1543.00
2023-05-05T04:35:38.653Z,1555.00
2023-05-05T04:36:38.725Z,1533.00
2023-05-05T04:37:38.785Z,1570.00
2023-05-05T04:38:38.982Z,1576.00
2023-05-05T04:39:38.909Z,1501.00
2023-05-05T04:40:38.990Z,1444.00
2023-05-05T04:41:39.094Z,1417.00
2023-05-05T04:42:39.118Z,1399.00
2023-05-05T04:43:39.189Z,1390.00
2023-05-05T04:44:39.262Z,1413.00
2023-05-05T04:45:39.297Z,1474.00
2023-05-05T04:46:39.346Z,1471.00
2023-05-05T04:47:39.476Z,1417.00
2023-05-05T04:48:39.472Z,1398.00
2023-05-05T04:49:39.508Z,1409.00
2023-05-05T04:50:39.603Z,1427.00
2023-05-05T04:51:39.608Z,1491.00
2023-05-05T04:52:39.698Z,1585.00
2023-05-05T04:53:39.766Z,1691.00
2023-05-05T04:54:39.825Z,1780.00
2023-05-05T04:55:39.856Z,1845.00
2023-05-05T04:56:39.945Z,1870.00
2023-05-05T04:57:39.953Z,1906.00
2023-05-05T04:58:40.106Z,1907.00
2023-05-05T04:59:40.084Z,1949.00
2023-05-05T05:00:40.118Z,2018.00
2023-05-05T05:01:40.217Z,2048.00
2023-05-05T05:02:40.335Z,2076.00
2023-05-05T05:03:40.354Z,2118.00
2023-05-05T05:04:40.370Z,2131.00
2023-05-05T05:05:40.439Z,1927.00
2023-05-05T05:06:40.433Z,1817.00
2023-05-05T05:07:40.478Z,1866.00
2023-05-05T05:08:40.443Z,1911.00
2023-05-05T05:09:40.494Z,1903.00
2023-05-05T05:10:40.507Z,1919.00
2023-05-05T05:11:40.482Z,1965.00
2023-05-05T05:12:40.553Z,1990.00
2023-05-05T05:13:40.489Z,2032.00
2023-05-05T05:14:40.627Z,2057.00
2023-05-05T05:15:40.718Z,2095.00
2023-05-05T05:16:40.782Z,2098.00
2023-05-05T05:17:40.845Z,2139.00
2023-05-05T05:18:41.097Z,2206.00
2023-05-05T05:19:40.879Z,2275.00
2023-05-05T05:20:40.940Z,2341.00
2023-05-05T05:21:41.102Z,2350.00
2023-05-05T05:22:41.036Z,2292.00
2023-05-05T05:23:41.086Z,2270.00
2023-05-05T05:24:41.168Z,2307.00
2023-05-05T05:25:41.235Z,2323.00
2023-05-05T05:26:41.364Z,2339.00
2023-05-05T05:27:41.483Z,2316.00
2023-05-05T05:28:41.573Z,2246.00
2023-05-05T05:29:41.770Z,2228.00
2023-05-05T05:30:41.628Z,2250.00
2023-05-05T05:31:41.743Z,2310.00
2023-05-05T05:32:41.692Z,2319.00
2023-05-05T05:33:42.083Z,2343.00
2023-05-05T05:34:41.755Z,2327.00
2023-05-05T05:35:41.803Z,2222.00
2023-05-05T05:36:41.864Z,2220.00
2023-05-05T05:37:41.913Z,2223.00
2023-05-05T05:38:41.935Z,2235.00
2023-05-05T05:39:43.337Z,2183.00
2023-05-05T05:40:41.995Z,2153.00
2023-05-05T05:41:42.092Z,2129.00
2023-05-05T05:42:42.090Z,1995.00
2023-05-05T05:43:42.199Z,1873.00
2023-05-05T05:44:42.199Z,1773.00
2023-05-05T05:45:42.232Z,1831.00
2023-05-05T05:46:43.122Z,1891.00
2023-05-05T05:47:42.356Z,1657.00
2023-05-05T05:48:42.406Z,1630.00
2023-05-05T05:49:42.414Z,1518.00
2023-05-05T05:50:42.461Z,1447.00
2023-05-05T05:51:42.516Z,1464.00
2023-05-05T05:52:42.602Z,1472.00
2023-05-05T05:53:42.797Z,1440.00
2023-05-05T05:54:42.692Z,1288.00
2023-05-05T05:55:42.713Z,1338.00
2023-05-05T05:56:42.778Z,1386.00
2023-05-05T05:57:42.869Z,1396.00
2023-05-05T05:58:42.864Z,1357.00
2023-05-05T05:59:42.889Z,1228.00
2023-05-05T06:00:42.915Z,1142.00
2023-05-05T06:01:43.000Z,1016.00
2023-05-05T06:02:43.091Z,913.00
2023-05-05T06:03:43.063Z,936.00
2023-05-05T06:04:43.152Z,1023.00
2023-05-05T06:05:43.033Z,886.00
2023-05-05T06:06:43.049Z,643.00
2023-05-05T06:07:43.029Z,626.00
2023-05-05T06:08:43.676Z,650.00
2023-05-05T06:09:43.054Z,704.00
2023-05-05T06:10:43.051Z,657.00
2023-05-05T06:11:43.056Z,654.00
2023-05-05T06:12:43.138Z,632.00
2023-05-05T06:13:43.078Z,639.00
2023-05-05T06:14:43.083Z,624.00
2023-05-05T06:15:43.111Z,615.00
2023-05-05T06:16:43.114Z,627.00
2023-05-05T06:17:43.149Z,663.00
2023-05-05T06:18:43.064Z,621.00
2023-05-05T06:19:43.112Z,561.00
2023-05-05T06:20:43.128Z,545.00
2023-05-05T06:21:43.129Z,554.00
2023-05-05T06:22:43.153Z,596.00
2023-05-05T06:23:43.179Z,471.00
2023-05-05T06:24:43.185Z,495.00
2023-05-05T06:25:43.278Z,521.00
2023-05-05T06:26:43.312Z,516.00
2023-05-05T06:27:43.369Z,2142.00
2023-05-05T06:28:43.597Z,3740.00
2023-05-05T06:29:43.461Z,4321.00
2023-05-05T06:30:43.468Z,3798.00
2023-05-05T06:31:43.590Z,3808.00
2023-05-05T06:32:43.538Z,3488.00
2023-05-05T06:33:43.519Z,3428.00
2023-05-05T06:34:43.514Z,3057.00
2023-05-05T06:35:43.553Z,2927.00
2023-05-05T06:36:43.597Z,2259.00
2023-05-05T06:37:43.514Z,2002.00
2023-05-05T06:38:43.711Z,2357.00
2023-05-05T06:39:43.544Z,2014.00
2023-05-05T06:40:43.510Z,1410.00
2023-05-05T06:41:43.676Z,1513.00
2023-05-05T06:42:43.579Z,1555.00
2023-05-05T06:43:43.557Z,1922.00
2023-05-05T06:44:43.642Z,1444.00
2023-05-05T06:45:43.964Z,1973.00
2023-05-05T06:46:43.705Z,2244.00
2023-05-05T06:47:43.616Z,2019.00
2023-05-05T06:48:43.617Z,1583.00
2023-05-05T06:49:43.571Z,1863.00
2023-05-05T06:50:43.556Z,1975.00
2023-05-05T06:51:43.626Z,2056.00
2023-05-05T06:52:43.702Z,1128.00
2023-05-05T06:53:44.125Z,570.00
2023-05-05T06:54:43.696Z,577.00
2023-05-05T06:55:43.707Z,1143.00
2023-05-05T06:56:43.744Z,1651.00
2023-05-05T06:57:43.784Z,1320.00
2023-05-05T06:58:43.759Z,624.00
2023-05-05T06:59:43.765Z,400.00
2023-05-05T07:00:43.802Z,400.00
2023-05-05T07:01:43.759Z,400.00
2023-05-05T07:02:43.845Z,400.00
2023-05-05T07:03:43.944Z,400.00
2023-05-05T07:04:43.884Z,400.00
2023-05-05T07:05:43.913Z,400.00
2023-05-05T07:06:43.942Z,400.00
2023-05-05T07:07:43.979Z,400.00
2023-05-05T07:08:43.977Z,400.00
2023-05-05T07:09:44.103Z,400.00
2023-05-05T07:10:44.068Z,400.00
2023-05-05T07:11:44.079Z,400.00
2023-05-05T07:12:44.221Z,400.00
2023-05-05T07:13:44.646Z,401.00
2023-05-05T07:14:44.194Z,415.00
2023-05-05T07:15:44.257Z,464.00
2023-05-05T07:16:44.264Z,534.00
2023-05-05T07:17:44.317Z,602.00
2023-05-05T07:18:44.348Z,666.00
2023-05-05T07:19:44.322Z,814.00
2023-05-05T07:20:44.494Z,554.00
2023-05-05T07:21:44.411Z,510.00
2023-05-05T07:22:44.362Z,400.00
2023-05-05T07:23:44.360Z,475.00
2023-05-05T07:24:44.387Z,523.00
2023-05-05T07:25:44.397Z,524.00
2023-05-05T07:26:44.401Z,500.00
2023-05-05T07:27:44.406Z,531.00
2023-05-05T07:28:44.445Z,522.00
2023-05-05T07:29:44.399Z,559.00
2023-05-05T07:30:44.420Z,554.00
2023-05-05T07:31:44.470Z,512.00
2023-05-05T07:32:44.570Z,401.00
2023-05-05T07:33:44.681Z,442.00
2023-05-05T07:34:44.601Z,495.00
2023-05-05T07:35:44.710Z,502.00
2023-05-05T07:36:44.760Z,466.00
2023-05-05T07:37:44.805Z,480.00
2023-05-05T07:38:45.213Z,528.00
2023-05-05T07:39:44.908Z,593.00
2023-05-05T07:40:45.029Z,622.00
2023-05-05T07:41:45.049Z,594.00
2023-05-05T07:42:45.110Z,630.00
2023-05-05T07:43:45.137Z,580.00
2023-05-05T07:44:45.292Z,588.00
2023-05-05T07:45:45.307Z,639.00
2023-05-05T07:46:45.274Z,619.00
2023-05-05T07:47:45.404Z,605.00
2023-05-05T07:48:45.407Z,446.00
2023-05-05T07:49:45.389Z,400.00
2023-05-05T07:50:45.489Z,434.00
2023-05-05T07:51:45.493Z,454.00
2023-05-05T07:52:50.053Z,435.00
2023-05-05T07:53:46.540Z,436.00
2023-05-05T07:54:45.498Z,442.00
2023-05-05T07:55:45.551Z,408.00
2023-05-05T07:56:45.504Z,469.00
2023-05-05T07:57:45.537Z,504.00
2023-05-05T07:58:45.527Z,520.00
2023-05-05T07:59:45.497Z,550.00
2023-05-05T08:00:45.517Z,470.00
2023-05-05T08:01:45.434Z,500.00
2023-05-05T08:02:45.491Z,580.00
2023-05-05T08:03:45.587Z,537.00
2023-05-05T08:04:45.585Z,549.00
2023-05-05T08:05:45.433Z,578.00
2023-05-05T08:06:45.470Z,557.00
2023-05-05T08:07:45.424Z,495.00
2023-05-05T08:08:45.428Z,497.00
2023-05-05T08:09:45.442Z,513.00
2023-05-05T08:10:45.470Z,524.00
2023-05-05T08:11:45.419Z,624.00
2023-05-05T08:12:45.427Z,767.00
2023-05-05T08:13:45.431Z,848.00
2023-05-05T08:14:45.425Z,1091.00
2023-05-05T08:15:45.460Z,765.00
2023-05-05T08:16:45.448Z,593.00
2023-05-05T08:17:45.430Z,539.00
2023-05-05T08:18:45.467Z,576.00
2023-05-05T08:19:45.520Z,1031.00
2023-05-05T08:20:45.613Z,587.00
2023-05-05T08:21:45.592Z,427.00
2023-05-05T08:22:45.640Z,521.00
2023-05-05T08:23:45.657Z,516.00
2023-05-05T08:24:46.179Z,561.00
2023-05-05T08:25:45.761Z,475.00
2023-05-05T08:26:45.849Z,518.00
2023-05-05T08:27:45.875Z,533.00
2023-05-05T08:28:45.909Z,582.00
2023-05-05T08:29:45.998Z,549.00
2023-05-05T08:30:46.009Z,512.00
2023-05-05T08:31:46.126Z,413.00
2023-05-05T08:32:46.169Z,400.00
2023-05-05T08:33:46.124Z,464.00
2023-05-05T08:34:46.206Z,500.00
2023-05-05T08:35:46.185Z,499.00
2023-05-05T08:36:46.255Z,540.00
2023-05-05T08:37:46.345Z,650.00
2023-05-05T08:38:46.385Z,773.00
2023-05-05T08:39:46.434Z,1031.00
2023-05-05T08:40:46.428Z,1100.00
2023-05-05T08:41:46.429Z,879.00
2023-05-05T08:42:46.567Z,670.00
2023-05-05T08:43:46.448Z,844.00
2023-05-05T08:44:46.506Z,835.00
2023-05-05T08:45:46.494Z,987.00
2023-05-05T08:46:46.543Z,1162.00
2023-05-05T08:47:46.626Z,1285.00
2023-05-05T08:48:46.700Z,707.00
2023-05-05T08:49:46.660Z,629.00
2023-05-05T08:50:46.770Z,570.00
2023-05-05T08:51:46.806Z,625.00
2023-05-05T08:53:46.850Z,614.00
2023-05-05T08:54:46.899Z,604.00
2023-05-05T08:55:46.947Z,777.00
2023-05-05T08:56:47.016Z,795.00
2023-05-05T08:57:47.040Z,2965.00
2023-05-05T08:58:47.112Z,5343.00
2023-05-05T08:59:47.114Z,7046.00
2023-05-05T09:00:47.142Z,6867.00
2023-05-05T09:01:47.085Z,6707.00
2023-05-05T09:02:47.253Z,5094.00
2023-05-05T09:03:47.165Z,2803.00
2023-05-05T09:04:47.707Z,2163.00
2023-05-05T09:05:47.237Z,1917.00
2023-05-05T09:06:47.278Z,1668.00
2023-05-05T09:07:47.501Z,1389.00
2023-05-05T09:08:47.394Z,1095.00
2023-05-05T09:09:47.496Z,992.00
2023-05-05T09:10:47.492Z,797.00
2023-05-05T09:11:47.521Z,663.00
2023-05-05T09:12:47.715Z,727.00
2023-05-05T09:13:47.674Z,804.00
2023-05-05T09:14:48.157Z,847.00
2023-05-05T09:15:47.844Z,706.00
2023-05-05T09:16:47.850Z,593.00
2023-05-05T09:17:47.939Z,644.00
2023-05-05T09:18:47.964Z,737.00
2023-05-05T09:19:48.025Z,609.00
2023-05-05T09:20:48.127Z,573.00
2023-05-05T09:21:48.108Z,579.00
2023-05-05T09:22:48.235Z,651.00
2023-05-05T09:23:48.187Z,659.00
2023-05-05T09:24:48.273Z,525.00
2023-05-05T09:25:48.343Z,470.00
2023-05-05T09:26:48.385Z,500.00
2023-05-05T09:27:48.494Z,531.00
2023-05-05T09:28:48.559Z,409.00
2023-05-05T09:29:48.573Z,451.00
2023-05-05T09:30:48.610Z,523.00
2023-05-05T09:31:48.668Z,625.00
2023-05-05T09:32:48.835Z,1003.00
2023-05-05T09:33:48.807Z,2952.00
2023-05-05T09:34:49.206Z,1623.00
2023-05-05T09:35:48.846Z,2252.00
2023-05-05T09:36:48.942Z,1944.00
2023-05-05T09:37:48.919Z,3128.00
2023-05-05T09:38:48.940Z,3184.00
2023-05-05T09:39:48.945Z,3676.00
2023-05-05T09:40:48.995Z,3005.00
2023-05-05T09:41:48.977Z,2819.00
2023-05-05T09:42:49.046Z,2121.00
2023-05-05T09:43:49.014Z,1207.00
2023-05-05T09:44:49.029Z,1100.00
2023-05-05T09:45:49.034Z,1060.00
2023-05-05T09:46:49.122Z,823.00
2023-05-05T09:47:49.236Z,842.00
2023-05-05T09:48:49.071Z,973.00
2023-05-05T09:49:49.196Z,1016.00
2023-05-05T09:50:49.061Z,1154.00
2023-05-05T09:51:49.104Z,665.00
2023-05-05T09:52:49.147Z,633.00
2023-05-05T09:53:49.022Z,624.00
2023-05-05T09:54:49.108Z,658.00
2023-05-05T09:55:49.093Z,754.00
2023-05-05T09:56:49.055Z,719.00
2023-05-05T09:57:49.108Z,772.00
2023-05-05T09:58:49.152Z,693.00
2023-05-05T09:59:49.156Z,688.00
2023-05-05T10:00:49.166Z,642.00
2023-05-05T10:01:49.262Z,603.00
2023-05-05T10:02:49.327Z,490.00
2023-05-05T10:03:49.453Z,471.00
2023-05-05T10:04:49.752Z,560.00
2023-05-05T10:05:49.423Z,541.00
2023-05-05T10:06:49.444Z,535.00
2023-05-05T10:07:49.495Z,561.00
2023-05-05T10:08:49.451Z,584.00
2023-05-05T10:09:49.749Z,624.00
2023-05-05T10:10:49.491Z,586.00
2023-05-05T10:11:49.569Z,465.00
2023-05-05T10:12:49.727Z,521.00
2023-05-05T10:13:49.534Z,535.00
2023-05-05T10:14:49.720Z,636.00
2023-05-05T10:15:49.582Z,473.00
2023-05-05T10:16:49.586Z,431.00
2023-05-05T10:18:05.077Z,530.00
2023-05-05T10:18:50.594Z,494.00
2023-05-05T10:19:49.684Z,451.00
2023-05-05T10:20:49.569Z,417.00
2023-05-05T10:21:49.590Z,407.00
2023-05-05T10:22:49.621Z,425.00
2023-05-05T10:23:49.522Z,500.00
2023-05-05T10:24:49.546Z,539.00
2023-05-05T10:25:49.547Z,567.00
2023-05-05T10:26:49.528Z,614.00
2023-05-05T10:27:49.515Z,664.00
2023-05-05T10:28:49.567Z,592.00
2023-05-05T10:29:49.690Z,591.00
2023-05-05T10:30:49.500Z,713.00
2023-05-05T10:31:49.523Z,740.00
2023-05-05T10:32:56.843Z,671.00
2023-05-05T10:33:50.560Z,649.00
2023-05-05T10:34:49.692Z,595.00
2023-05-05T10:35:49.525Z,451.00
2023-05-05T10:36:49.459Z,500.00
2023-05-05T10:37:49.435Z,521.00
2023-05-05T10:38:49.427Z,553.00
2023-05-05T10:39:49.695Z,587.00
2023-05-05T10:40:49.490Z,453.00
2023-05-05T10:41:49.429Z,468.00
2023-05-05T10:42:49.456Z,501.00
2023-05-05T10:43:49.383Z,470.00
2023-05-05T10:44:49.791Z,558.00
2023-05-05T10:45:49.498Z,510.00
2023-05-05T10:46:49.377Z,515.00
2023-05-05T10:47:49.426Z,539.00
2023-05-05T10:48:49.485Z,563.00
2023-05-05T10:49:49.722Z,555.00
2023-05-05T10:50:49.393Z,483.00
2023-05-05T10:51:49.378Z,529.00
2023-05-05T10:52:49.377Z,577.00
2023-05-05T10:53:49.428Z,616.00
2023-05-05T10:54:49.364Z,664.00
2023-05-05T10:55:49.349Z,593.00
2023-05-05T10:56:49.541Z,593.00
2023-05-05T10:57:49.321Z,526.00
2023-05-05T10:58:59.691Z,451.00
2023-05-05T10:59:50.793Z,451.00
2023-05-05T11:00:49.369Z,462.00
2023-05-05T11:01:49.293Z,513.00
2023-05-05T11:02:49.344Z,590.00
2023-05-05T11:03:49.325Z,767.00
2023-05-05T11:04:49.703Z,744.00
2023-05-05T11:06:00.840Z,745.00
2023-05-05T11:06:49.452Z,748.00
2023-05-05T11:07:49.552Z,785.00
2023-05-05T11:08:49.584Z,649.00
2023-05-05T11:09:49.635Z,621.00
2023-05-05T11:10:49.744Z,659.00
2023-05-05T11:11:49.778Z,596.00
2023-05-05T11:12:49.818Z,693.00
2023-05-05T11:13:49.824Z,615.00
2023-05-05T11:14:50.279Z,660.00
2023-05-05T11:15:49.966Z,578.00
2023-05-05T11:16:50.082Z,493.00
2023-05-05T11:17:50.080Z,500.00
2023-05-05T11:18:50.143Z,516.00
2023-05-05T11:19:50.277Z,527.00
2023-05-05T11:20:50.394Z,500.00
2023-05-05T11:21:50.350Z,551.00
2023-05-05T11:22:50.365Z,542.00
2023-05-05T11:23:50.412Z,599.00
2023-05-05T11:24:50.768Z,649.00
2023-05-05T11:25:50.521Z,665.00
2023-05-05T11:26:50.571Z,770.00
2023-05-05T11:27:50.581Z,691.00
2023-05-05T11:28:50.576Z,637.00
2023-05-05T11:29:52.071Z,557.00
2023-05-05T11:30:50.658Z,597.00
2023-05-05T11:31:50.676Z,536.00
2023-05-05T11:32:50.703Z,552.00
2023-05-05T11:33:50.777Z,635.00
2023-05-05T11:34:50.750Z,532.00
2023-05-05T11:35:50.702Z,506.00
2023-05-05T11:36:50.705Z,582.00
2023-05-05T11:37:50.677Z,587.00
2023-05-05T11:38:50.736Z,597.00
2023-05-05T11:39:50.771Z,498.00
2023-05-05T11:40:50.888Z,595.00
2023-05-05T11:41:50.912Z,400.00
2023-05-05T11:42:50.943Z,400.00
2023-05-05T11:43:51.057Z,422.00
2023-05-05T11:44:51.143Z,539.00
2023-05-05T11:45:51.163Z,533.00
2023-05-05T11:46:51.320Z,488.00
2023-05-05T11:47:51.267Z,550.00
2023-05-05T11:48:51.257Z,488.00
2023-05-05T11:49:51.346Z,432.00
2023-05-05T11:50:51.409Z,529.00
2023-05-05T11:51:51.545Z,573.00
2023-05-05T11:52:51.487Z,577.00
2023-05-05T11:53:51.520Z,644.00
2023-05-05T11:54:51.736Z,918.00
2023-05-05T11:55:51.605Z,893.00
2023-05-05T11:56:51.613Z,941.00
2023-05-05T11:57:51.675Z,814.00
2023-05-05T11:58:51.666Z,597.00
2023-05-05T11:59:51.779Z,539.00
2023-05-05T12:00:51.777Z,558.00
2023-05-05T12:01:51.716Z,597.00
2023-05-05T12:02:51.941Z,683.00
2023-05-05T12:03:52.008Z,708.00
2023-05-05T12:04:51.854Z,899.00
2023-05-05T12:05:51.751Z,955.00
2023-05-05T12:06:51.762Z,731.00
2023-05-05T12:07:51.778Z,612.00
2023-05-05T12:08:51.807Z,558.00
2023-05-05T12:09:52.294Z,507.00
2023-05-05T12:10:51.857Z,516.00
2023-05-05T12:11:51.857Z,463.00
2023-05-05T12:12:55.017Z,480.00
2023-05-05T12:13:51.914Z,470.00
2023-05-05T12:14:52.255Z,481.00
2023-05-05T12:15:51.978Z,534.00
2023-05-05T12:16:51.951Z,482.00
2023-05-05T12:17:51.932Z,522.00
2023-05-05T12:18:51.905Z,520.00
2023-05-05T12:19:51.911Z,533.00